KMWL/MWL METAR and TAF weather

Enter ICAO airport designator
Station Type Date Time Source
KMWL METAR 2019/12/05 22:53 UTC NOAA

KMWL 052253Z AUTO 17008KT 10SM CLR 24/06 A2981 RMK AO2 SLP085 T02440056


Station Type Date Time Source
KMWL Decoded METAR 2019/12/05 22:53 UTC NOAA

MINERAL WELLS AIRPORT, TX, United States (KMWL) 32-47N 098-04W 284M
Dec 05, 2019 - 05:53 PM EST / 2019.12.05 2253 UTC
Wind: from the S (170 degrees) at 9 MPH (8 KT):0
Visibility: 10 mile(s):0
Sky conditions: clear
Temperature: 75.9 F (24.4 C)
Dew Point: 42.1 F (5.6 C)
Relative Humidity: 29%
Pressure (altimeter): 29.81 in. Hg (1009 hPa)
ob: KMWL 052253Z AUTO 17008KT 10SM CLR 24/06 A2981 RMK AO2 SLP085 T02440056
cycle: 23

Station Type Date Time Source
KMWL TAF UTC NOAA

Error!

Example: see airport list